Time;durP1;ratioP1;P1;durP2;ratioP2;P2;SDS_P1;SDS_P2;PMS_P1;PMS_P2;Temp;Humidity;BMP_temperature;BMP_pressure;BME280_temperature;BME280_humidity;BME280_pressure;Samples;Min_cycle;Max_cycle;Signal;HPM_P1;HPM_P2
2022/02/10 00:13:27;;;;;;;3.90;2.10;;;8.70;92.40;;;;;;6183245;23;20076;-73
2022/02/10 00:14:28;;;;;;;3.05;1.65;;;8.70;92.40;;;;;;6180497;23;20036;-73
2022/02/10 00:35:51;;;;;;;5.57;3.05;;;8.60;92.30;;;;;;6178202;23;20024;-73
2022/02/10 00:38:19;;;;;;;6.55;3.33;;;8.70;92.30;;;;;;6181470;23;20024;-73
2022/02/10 00:40:45;;;;;;;5.40;2.83;;;8.70;92.30;;;;;;6183084;23;20119;-73
2022/02/10 00:43:13;;;;;;;5.88;2.95;;;8.70;92.30;;;;;;6183108;23;20048;-72
2022/02/10 00:45:39;;;;;;;6.32;3.25;;;8.70;92.20;;;;;;6180781;23;19998;-73
2022/02/10 00:48:06;;;;;;;5.50;2.92;;;8.70;92.20;;;;;;6183180;23;20359;-72
2022/02/10 00:50:34;;;;;;;4.82;2.38;;;8.70;92.20;;;;;;6182646;23;20014;-72
2022/02/10 00:53:07;;;;;;;5.10;2.60;;;8.70;92.20;;;;;;6181481;23;20042;-72
2022/02/10 00:55:36;;;;;;;4.22;2.30;;;8.70;92.20;;;;;;6181954;23;20009;-73
2022/02/10 00:58:05;;;;;;;5.38;2.90;;;8.70;92.20;;;;;;6178977;23;20012;-72
2022/02/10 01:14:05;;;;;;;3.30;1.95;;;8.80;92.10;;;;;;6182860;23;20076;-72
2022/02/10 01:29:57;;;;;;;3.17;1.90;;;8.70;92.00;;;;;;6183877;23;20009;-73
2022/02/10 01:32:24;;;;;;;3.72;1.98;;;8.70;92.00;;;;;;6181922;23;20085;-72
2022/02/10 01:34:52;;;;;;;3.90;1.90;;;8.70;92.00;;;;;;6183914;23;20083;-72
2022/02/10 01:37:18;;;;;;;3.97;2.10;;;8.70;92.00;;;;;;6179728;23;20008;-73
2022/02/10 01:39:50;;;;;;;3.33;1.85;;;8.80;92.00;;;;;;6182144;23;20460;-72
2022/02/10 02:03:39;;;;;;;2.65;1.55;;;8.70;92.00;;;;;;6182486;23;20476;-72
2022/02/10 02:06:10;;;;;;;2.67;1.52;;;8.70;92.00;;;;;;6184333;23;19998;-72
2022/02/10 02:08:39;;;;;;;2.65;1.63;;;8.70;92.00;;;;;;6184083;23;20008;-72
2022/02/10 02:11:05;;;;;;;3.50;1.73;;;8.70;92.00;;;;;;6183905;23;20020;-73
2022/02/10 02:13:32;;;;;;;2.90;1.70;;;8.70;92.00;;;;;;6183835;23;20043;-72
2022/02/10 02:15:59;;;;;;;2.55;1.60;;;8.70;92.00;;;;;;6184201;23;20009;-72
2022/02/10 02:18:26;;;;;;;3.13;1.90;;;8.70;92.00;;;;;;6183729;23;20795;-72
2022/02/10 02:20:55;;;;;;;2.42;1.60;;;8.80;92.00;;;;;;6183652;23;20006;-72
2022/02/10 02:23:23;;;;;;;3.08;1.60;;;8.70;92.00;;;;;;6182164;23;20041;-72
2022/02/10 02:25:55;;;;;;;2.60;1.70;;;8.70;92.00;;;;;;6184528;23;20295;-72
2022/02/10 02:28:22;;;;;;;3.28;1.73;;;8.70;92.00;;;;;;6181315;23;20008;-72
2022/02/10 02:30:53;;;;;;;2.65;1.67;;;8.70;91.90;;;;;;6179731;23;19997;-72
2022/02/10 02:34:00;;;;;;;2.83;1.45;;;8.70;91.90;;;;;;6182949;23;20005;-72
2022/02/10 02:36:38;;;;;;;3.15;1.60;;;8.70;91.90;;;;;;6183677;23;20553;-72
2022/02/10 02:39:16;;;;;;;3.28;1.55;;;8.70;91.90;;;;;;6182381;23;20016;-73
2022/02/10 03:06:01;;;;;;;3.55;1.83;;;8.70;91.70;;;;;;6183628;23;20064;-72
2022/02/10 03:08:27;;;;;;;3.03;1.67;;;8.80;91.80;;;;;;6184296;23;20425;-72
2022/02/10 03:11:06;;;;;;;3.58;1.90;;;8.70;91.70;;;;;;6157174;23;20056;-72
2022/02/10 03:13:37;;;;;;;3.20;1.70;;;8.70;91.70;;;;;;6181358;23;20016;-72
2022/02/10 03:18:59;;;;;;;1.88;1.30;;;8.70;91.70;;;;;;6182263;23;20456;-72
2022/02/10 03:21:45;;;;;;;2.95;1.50;;;8.70;91.70;;;;;;6157494;23;20079;-72
2022/02/10 04:01:54;;;;;;;3.55;1.60;;;8.60;91.70;;;;;;6183317;23;20084;-73
2022/02/10 04:04:32;;;;;;;2.05;1.23;;;8.60;91.70;;;;;;6180118;23;20087;-73
2022/02/10 04:15:17;;;;;;;3.75;1.88;;;8.50;91.80;;;;;;6183225;23;20372;-74
2022/02/10 04:18:05;;;;;;;3.70;1.85;;;8.50;91.80;;;;;;6182397;23;20002;-73
2022/02/10 04:26:15;;;;;;;3.58;1.90;;;8.50;91.70;;;;;;6183169;23;20337;-73
2022/02/10 04:28:58;;;;;;;3.03;1.80;;;8.50;91.70;;;;;;6182915;23;20036;-73
2022/02/10 04:32:05;;;;;;;3.50;1.90;;;8.50;91.70;;;;;;6179831;23;20033;-71
2022/02/10 04:42:59;;;;;;;4.03;2.35;;;8.60;91.70;;;;;;6182897;23;20434;-73
2022/02/10 04:53:08;;;;;;;4.97;2.60;;;8.50;91.70;;;;;;6182674;23;20008;-73
2022/02/10 04:58:44;;;;;;;4.90;2.58;;;8.40;91.60;;;;;;6182707;23;20442;-73
2022/02/10 05:07:06;;;;;;;4.65;2.70;;;8.50;91.60;;;;;;6183073;23;20013;-73
2022/02/10 05:15:16;;;;;;;5.05;2.60;;;8.50;91.60;;;;;;6181651;23;19907;-74
2022/02/10 05:17:47;;;;;;;4.05;2.22;;;8.50;91.60;;;;;;6182650;23;20013;-73
2022/02/10 05:20:26;;;;;;;4.15;2.40;;;8.40;91.50;;;;;;6183280;23;20493;-73
2022/02/10 05:31:56;;;;;;;4.60;2.58;;;8.40;91.50;;;;;;6182893;23;20040;-73
2022/02/10 05:33:53;;;;;;;5.60;2.55;;;8.40;91.50;;;;;;6182566;23;20333;-72
2022/02/10 05:36:22;;;;;;;5.15;2.88;;;8.50;91.60;;;;;;6181610;23;20009;-72
2022/02/10 05:38:55;;;;;;;4.40;2.42;;;8.30;91.60;;;;;;6183251;23;20001;-71
2022/02/10 05:47:09;;;;;;;4.35;2.30;;;8.40;91.60;;;;;;6183240;23;20080;-73
2022/02/10 05:50:17;;;;;;;5.05;2.67;;;8.40;91.60;;;;;;6183983;23;20005;-72
2022/02/10 05:52:48;;;;;;;5.85;2.90;;;8.40;91.60;;;;;;6182736;23;20076;-73
2022/02/10 05:55:41;;;;;;;4.90;2.92;;;8.40;91.60;;;;;;6182690;23;20009;-73
2022/02/10 06:49:14;;;;;;;6.47;3.63;;;8.10;91.80;;;;;;6183804;23;20010;-73
2022/02/10 06:52:03;;;;;;;7.30;4.20;;;8.20;91.80;;;;;;6183543;23;20009;-73
2022/02/10 07:05:36;;;;;;;6.40;3.78;;;8.10;91.80;;;;;;6180141;23;20088;-73
2022/02/10 07:10:59;;;;;;;7.60;3.67;;;8.10;91.80;;;;;;6183799;23;20012;-73
2022/02/10 07:13:41;;;;;;;5.38;3.17;;;8.10;91.90;;;;;;6183718;23;20005;-73
2022/02/10 07:46:48;;;;;;;5.65;3.17;;;7.80;92.20;;;;;;6183828;23;20515;-74
2022/02/10 07:49:12;;;;;;;5.07;2.55;;;7.90;92.20;;;;;;6183144;23;20037;-74
2022/02/10 07:51:53;;;;;;;4.00;2.03;;;7.80;92.20;;;;;;6184110;23;20036;-73
2022/02/10 07:54:08;;;;;;;4.40;1.92;;;7.80;92.20;;;;;;6183723;23;20449;-74
2022/02/10 07:56:49;;;;;;;3.47;1.77;;;7.70;92.30;;;;;;6162085;23;20459;-73
2022/02/10 08:49:38;;;;;;;0.35;0.35;;;7.60;92.50;;;;;;6186006;23;20006;-75
2022/02/10 08:50:34;;;;;;;0.20;0.20;;;7.60;92.50;;;;;;6184198;23;20015;-74
2022/02/10 08:55:57;;;;;;;0.70;0.30;;;7.60;92.50;;;;;;6161348;23;20073;-74
2022/02/10 08:58:55;;;;;;;0.55;0.20;;;7.60;92.40;;;;;;6181550;23;20441;-74
2022/02/10 09:01:30;;;;;;;0.88;0.20;;;7.60;92.40;;;;;;6192067;23;20068;-75
2022/02/10 09:04:01;;;;;;;1.30;0.30;;;7.70;92.50;;;;;;6188035;23;20515;-76
2022/02/10 09:07:01;;;;;;;0.20;0.20;;;7.60;92.40;;;;;;6188024;23;20076;-74
2022/02/10 09:51:10;;;;;;;0.63;0.30;;;7.70;92.20;;;;;;6186804;23;20098;-77
2022/02/10 10:03:07;;;;;;;0.32;0.20;;;7.70;92.10;;;;;;6185115;23;20077;-75
2022/02/10 10:05:40;;;;;;;0.20;0.20;;;7.70;92.10;;;;;;6182773;23;20060;-74
2022/02/10 10:08:19;;;;;;;0.10;0.10;;;7.70;92.10;;;;;;6182544;23;20402;-74
2022/02/10 10:11:02;;;;;;;1.33;0.20;;;7.70;92.10;;;;;;6182838;23;20041;-73
2022/02/10 10:21:45;;;;;;;0.63;0.10;;;7.80;92.00;;;;;;6183992;23;20013;-74
2022/02/10 10:27:10;;;;;;;0.30;0.20;;;7.90;91.90;;;;;;6184245;23;20005;-74
2022/02/10 10:52:15;;;;;;;0.30;0.30;;;8.30;91.60;;;;;;6182617;23;20314;-74
2022/02/10 10:54:52;;;;;;;0.95;0.40;;;8.40;91.50;;;;;;6178881;23;20059;-74
2022/02/10 10:57:23;;;;;;;0.47;0.38;;;8.40;91.40;;;;;;6182364;23;20001;-73
2022/02/10 11:00:25;;;;;;;0.20;0.20;;;8.50;91.40;;;;;;6183004;23;20001;-74
2022/02/10 11:22:23;;;;;;;0.70;0.50;;;8.40;91.30;;;;;;6183162;23;20441;-73
2022/02/10 11:38:20;;;;;;;1.55;0.85;;;8.90;91.10;;;;;;6150971;23;20005;-73
2022/02/10 11:41:22;;;;;;;0.90;0.68;;;8.90;91.00;;;;;;6125630;23;20013;-73
2022/02/10 13:27:56;;;;;;;2.08;0.80;;;8.90;90.20;;;;;;6162676;23;20012;-73
2022/02/10 13:48:16;;;;;;;1.02;0.65;;;9.00;90.00;;;;;;6183583;23;20041;-74
2022/02/10 14:09:00;;;;;;;1.17;0.70;;;9.00;89.60;;;;;;6182585;23;20009;-74
2022/02/10 14:12:03;;;;;;;1.58;0.50;;;8.90;89.30;;;;;;6184126;23;20005;-72
2022/02/10 14:14:13;;;;;;;1.35;0.65;;;8.90;89.30;;;;;;6179173;23;20020;-73
2022/02/10 14:16:48;;;;;;;1.63;0.68;;;8.80;89.20;;;;;;6157515;23;20028;-73
2022/02/10 14:19:19;;;;;;;1.33;0.57;;;8.90;89.20;;;;;;6182864;23;20005;-73
2022/02/10 14:21:58;;;;;;;1.92;0.40;;;8.90;89.10;;;;;;6182766;23;20005;-73
2022/02/10 14:27:06;;;;;;;0.50;0.50;;;8.80;89.00;;;;;;6183978;23;20441;-75
2022/02/10 14:29:34;;;;;;;0.68;0.60;;;8.80;88.90;;;;;;6182619;23;20031;-74
2022/02/10 14:32:00;;;;;;;1.23;0.68;;;8.80;88.90;;;;;;6183308;23;20001;-74
2022/02/10 14:34:28;;;;;;;1.45;0.60;;;8.70;88.90;;;;;;6184643;23;20414;-74
2022/02/10 14:37:13;;;;;;;0.93;0.40;;;8.60;88.80;;;;;;6183143;23;19997;-74
2022/02/10 14:39:55;;;;;;;1.08;0.35;;;8.70;88.90;;;;;;6182247;23;20076;-74
2022/02/10 15:12:33;;;;;;;0.95;0.40;;;8.50;88.00;;;;;;6183706;23;20009;-73
2022/02/10 15:15:31;;;;;;;1.33;0.75;;;8.50;88.00;;;;;;6183235;23;20104;-73
2022/02/10 15:32:09;;;;;;;3.22;0.90;;;8.50;87.70;;;;;;6183209;23;20426;-72
2022/02/10 15:35:36;;;;;;;1.67;0.70;;;8.40;87.50;;;;;;6182908;23;20389;-73
2022/02/10 15:47:53;;;;;;;2.15;0.68;;;8.30;87.60;;;;;;6183329;23;20008;-73
2022/02/10 15:52:57;;;;;;;1.27;0.40;;;8.10;87.60;;;;;;6182741;23;20009;-73
2022/02/10 15:55:28;;;;;;;1.35;0.38;;;8.10;87.70;;;;;;6183042;23;20109;-73
2022/02/10 16:11:19;;;;;;;1.17;0.40;;;7.90;88.00;;;;;;6183323;23;20052;-72
2022/02/10 16:19:14;;;;;;;0.50;0.50;;;7.70;87.90;;;;;;6181966;23;20005;-72
2022/02/10 16:21:44;;;;;;;0.45;0.32;;;7.80;88.00;;;;;;6156898;23;20005;-72
2022/02/10 16:24:17;;;;;;;0.47;0.30;;;7.80;88.10;;;;;;6183571;23;20021;-72
2022/02/10 16:27:10;;;;;;;0.40;0.30;;;7.80;88.10;;;;;;6184241;23;20001;-72
2022/02/10 16:29:30;;;;;;;2.88;0.40;;;7.70;88.10;;;;;;6178861;23;20001;-72
2022/02/10 16:31:56;;;;;;;0.35;0.30;;;7.70;88.10;;;;;;6157471;23;20016;-73
2022/02/10 16:34:23;;;;;;;0.60;0.50;;;7.60;88.00;;;;;;6156892;23;20037;-73
2022/02/10 16:36:49;;;;;;;1.20;0.50;;;7.60;88.00;;;;;;6183638;23;20196;-72
2022/02/10 16:39:18;;;;;;;2.60;0.70;;;7.60;88.60;;;;;;6184187;23;20005;-72
2022/02/10 16:41:44;;;;;;;1.58;0.50;;;7.60;87.90;;;;;;6183596;23;20011;-72
2022/02/10 16:44:11;;;;;;;0.82;0.40;;;7.60;87.90;;;;;;6183203;23;20052;-72
2022/02/10 16:46:37;;;;;;;2.05;0.50;;;7.60;87.90;;;;;;6183396;23;20004;-72
2022/02/10 16:49:03;;;;;;;2.15;0.50;;;7.50;87.90;;;;;;6183196;23;19997;-72
2022/02/10 16:51:29;;;;;;;0.30;0.30;;;7.50;87.80;;;;;;6183119;23;19997;-72
2022/02/10 16:54:04;;;;;;;1.05;0.50;;;7.50;87.80;;;;;;6181568;23;20132;-72
2022/02/10 16:56:38;;;;;;;1.33;0.60;;;7.50;87.90;;;;;;6182796;23;20028;-73
2022/02/10 16:59:29;;;;;;;2.67;0.70;;;7.40;87.80;;;;;;6180938;23;20036;-73
2022/02/10 17:04:54;;;;;;;0.43;0.38;;;7.40;87.80;;;;;;6183133;23;20109;-73
2022/02/10 17:16:17;;;;;;;0.90;0.50;;;7.30;87.80;;;;;;6182836;23;20441;-71
2022/02/10 17:18:25;;;;;;;1.17;0.50;;;7.30;87.70;;;;;;6181493;23;20009;-72
2022/02/10 17:21:01;;;;;;;0.38;0.38;;;7.20;87.70;;;;;;6182681;23;20005;-72
2022/02/10 17:26:36;;;;;;;0.85;0.28;;;7.30;87.80;;;;;;6182864;23;20449;-72
2022/02/10 17:28:54;;;;;;;0.30;0.30;;;7.20;87.70;;;;;;6181442;23;20006;-72
2022/02/10 17:31:38;;;;;;;1.33;0.43;;;7.10;87.70;;;;;;6182863;23;20005;-73
2022/02/10 17:34:22;;;;;;;0.70;0.40;;;7.20;87.80;;;;;;6181702;23;20005;-72
2022/02/10 17:42:27;;;;;;;1.90;0.32;;;7.10;87.70;;;;;;6181677;23;20009;-72
2022/02/10 17:45:11;;;;;;;0.40;0.28;;;7.00;87.70;;;;;;6183263;23;20353;-72
2022/02/10 17:53:02;;;;;;;0.55;0.30;;;7.00;87.70;;;;;;6184007;23;20013;-72
2022/02/10 17:55:28;;;;;;;1.55;0.30;;;6.90;87.80;;;;;;6184226;23;20005;-72
2022/02/10 17:57:54;;;;;;;0.40;0.20;;;6.90;87.80;;;;;;6184410;23;20004;-72
2022/02/10 18:00:23;;;;;;;0.93;0.30;;;7.00;87.80;;;;;;6184757;23;20009;-72
2022/02/10 18:02:50;;;;;;;0.20;0.20;;;6.90;87.70;;;;;;6183373;23;20024;-72
2022/02/10 18:05:48;;;;;;;0.90;0.40;;;6.90;87.70;;;;;;6181262;23;20004;-72
2022/02/10 18:08:03;;;;;;;1.70;0.30;;;6.80;87.70;;;;;;6183878;23;20001;-72
2022/02/10 18:11:15;;;;;;;0.35;0.30;;;6.90;87.70;;;;;;6184374;23;20003;-72
2022/02/10 18:16:04;;;;;;;0.20;0.20;;;6.80;87.60;;;;;;6162684;23;20016;-72
2022/02/10 18:18:39;;;;;;;0.82;0.40;;;6.80;87.60;;;;;;6183900;23;20084;-72
2022/02/10 18:21:32;;;;;;;0.73;0.35;;;6.70;87.50;;;;;;6157139;23;20008;-72
2022/02/10 18:24:07;;;;;;;0.95;0.50;;;6.80;87.50;;;;;;6183896;23;20017;-72
2022/02/10 18:26:58;;;;;;;1.00;0.40;;;6.70;87.40;;;;;;6161129;23;19997;-72
2022/02/10 18:29:47;;;;;;;2.20;0.68;;;6.70;87.30;;;;;;6182546;23;20005;-72
2022/02/10 19:01:51;;;;;;;0.47;0.32;;;6.50;87.30;;;;;;6181041;23;20151;-72
2022/02/10 19:09:46;;;;;;;1.45;0.40;;;6.40;87.40;;;;;;6183873;23;20016;-72
2022/02/10 19:12:18;;;;;;;0.70;0.30;;;6.40;87.40;;;;;;6182843;23;20001;-72
2022/02/10 19:14:55;;;;;;;0.20;0.20;;;6.30;87.40;;;;;;6183663;23;19997;-72
2022/02/10 19:17:25;;;;;;;1.63;0.40;;;6.30;87.40;;;;;;6183711;23;20005;-72
2022/02/10 19:19:51;;;;;;;0.38;0.30;;;6.30;87.50;;;;;;6182470;23;20005;-71
2022/02/10 19:22:18;;;;;;;0.22;0.22;;;6.30;87.50;;;;;;6183892;23;20441;-71
2022/02/10 19:24:45;;;;;;;0.40;0.22;;;6.30;87.50;;;;;;6183435;23;20099;-72
2022/02/10 19:27:12;;;;;;;0.55;0.35;;;6.20;87.50;;;;;;6157995;23;20032;-72
2022/02/10 19:29:38;;;;;;;0.73;0.30;;;6.30;87.60;;;;;;6183990;23;20306;-72
2022/02/10 19:32:06;;;;;;;0.88;0.38;;;6.20;87.60;;;;;;6184206;23;20465;-71
2022/02/10 19:34:35;;;;;;;0.65;0.40;;;6.20;87.60;;;;;;6182152;23;20002;-71
2022/02/10 19:37:01;;;;;;;0.75;0.40;;;6.20;87.60;;;;;;6182851;23;20382;-71
2022/02/10 19:39:27;;;;;;;0.30;0.28;;;6.30;87.60;;;;;;6180884;23;20005;-72
2022/02/10 19:41:55;;;;;;;1.02;0.35;;;6.20;87.50;;;;;;6183831;23;20008;-71
2022/02/10 19:44:21;;;;;;;1.55;0.50;;;6.20;87.50;;;;;;6184058;23;20015;-72
2022/02/10 19:46:47;;;;;;;2.08;0.35;;;6.20;87.50;;;;;;6183537;23;20478;-71
2022/02/10 19:49:20;;;;;;;0.43;0.30;;;6.10;87.50;;;;;;6181345;23;20036;-71
2022/02/10 19:51:47;;;;;;;1.40;0.40;;;6.10;87.50;;;;;;6183475;23;20029;-71
2022/02/10 19:54:15;;;;;;;1.45;0.40;;;6.10;87.50;;;;;;6183535;23;21232;-71
2022/02/10 19:56:41;;;;;;;2.08;0.50;;;6.10;87.60;;;;;;6182033;23;20440;-71
2022/02/10 19:59:08;;;;;;;1.63;0.50;;;6.10;87.60;;;;;;6182224;23;20084;-72
2022/02/10 20:01:33;;;;;;;2.00;0.50;;;6.00;87.60;;;;;;6182059;23;20098;-71
2022/02/10 20:04:04;;;;;;;0.50;0.40;;;6.00;87.60;;;;;;6182484;23;20321;-71
2022/02/10 20:06:30;;;;;;;0.95;0.50;;;6.00;87.70;;;;;;6183697;23;20048;-71
2022/02/10 20:08:56;;;;;;;0.80;0.38;;;6.00;87.80;;;;;;6183958;23;19993;-71
2022/02/10 20:11:22;;;;;;;0.73;0.40;;;6.00;87.80;;;;;;6183159;23;20031;-72
2022/02/10 20:13:48;;;;;;;2.60;0.40;;;5.90;87.80;;;;;;6183535;23;20001;-71
2022/02/10 20:16:14;;;;;;;1.35;0.65;;;5.90;87.90;;;;;;6180626;23;20016;-71
2022/02/10 20:18:39;;;;;;;1.70;0.50;;;6.00;87.90;;;;;;6183885;23;20001;-72
2022/02/10 20:21:08;;;;;;;1.30;0.60;;;5.90;87.90;;;;;;6181976;23;20005;-71
2022/02/10 20:23:34;;;;;;;1.05;0.52;;;5.80;87.90;;;;;;6183417;23;20019;-72
2022/02/10 20:26:01;;;;;;;0.50;0.50;;;5.80;88.00;;;;;;6181601;23;20028;-72
2022/02/10 20:28:29;;;;;;;1.70;0.57;;;5.80;88.00;;;;;;6179981;23;20013;-72
2022/02/10 20:30:55;;;;;;;1.73;1.00;;;5.80;88.10;;;;;;6183420;23;20001;-72
2022/02/10 20:33:24;;;;;;;1.83;0.80;;;5.70;88.10;;;;;;6182077;23;20012;-72
2022/02/10 20:35:54;;;;;;;2.92;0.65;;;5.80;88.20;;;;;;6183556;23;20009;-72
2022/02/10 20:38:20;;;;;;;2.00;0.50;;;5.70;88.10;;;;;;6183513;23;20336;-72
2022/02/10 20:40:54;;;;;;;1.70;0.55;;;5.70;88.10;;;;;;6180404;23;20009;-71
2022/02/10 20:43:20;;;;;;;4.90;0.80;;;5.70;88.10;;;;;;6181709;23;20125;-71
2022/02/10 20:45:53;;;;;;;1.20;0.63;;;5.70;88.10;;;;;;6156789;23;20040;-71
2022/02/10 20:48:19;;;;;;;0.65;0.30;;;5.60;88.10;;;;;;6183720;23;20006;-72
2022/02/10 20:50:51;;;;;;;0.90;0.40;;;5.60;88.10;;;;;;6183674;23;20005;-72
2022/02/10 20:53:17;;;;;;;0.55;0.40;;;5.60;88.20;;;;;;6183132;23;20005;-72
2022/02/10 20:55:43;;;;;;;0.90;0.45;;;5.60;88.20;;;;;;6181557;23;20001;-72
2022/02/10 20:58:09;;;;;;;0.47;0.25;;;5.50;88.10;;;;;;6183373;23;20055;-72
2022/02/10 21:00:35;;;;;;;1.15;0.40;;;5.60;88.10;;;;;;6156693;23;20020;-72
2022/02/10 21:03:01;;;;;;;0.95;0.50;;;5.60;88.20;;;;;;6183148;23;20041;-72
2022/02/10 21:05:36;;;;;;;1.60;0.50;;;5.60;88.20;;;;;;6181912;23;20005;-72
2022/02/10 21:08:15;;;;;;;1.45;0.68;;;5.60;88.20;;;;;;6156483;23;20028;-71
2022/02/10 21:10:41;;;;;;;0.30;0.30;;;5.60;88.20;;;;;;6182854;23;20092;-71
2022/02/10 21:13:09;;;;;;;0.73;0.43;;;5.60;88.20;;;;;;6183457;23;20303;-72
2022/02/10 21:15:43;;;;;;;1.50;0.63;;;5.60;88.10;;;;;;6183441;23;20028;-72
2022/02/10 21:18:09;;;;;;;1.50;0.73;;;5.60;88.20;;;;;;6183727;23;20012;-72
2022/02/10 21:20:36;;;;;;;1.15;0.63;;;5.50;88.10;;;;;;6182412;23;20005;-72
2022/02/10 21:23:25;;;;;;;0.93;0.55;;;5.50;88.20;;;;;;6184047;23;20516;-72
2022/02/10 21:25:52;;;;;;;0.80;0.55;;;5.50;88.30;;;;;;6182486;23;20052;-72
2022/02/10 21:28:23;;;;;;;0.73;0.50;;;5.50;88.30;;;;;;6184020;23;20025;-72
2022/02/10 21:30:53;;;;;;;0.38;0.38;;;5.50;88.30;;;;;;6181914;23;20401;-71
2022/02/10 21:33:28;;;;;;;0.73;0.40;;;5.50;88.40;;;;;;6184270;23;20378;-71
2022/02/10 21:36:35;;;;;;;1.23;0.50;;;5.40;88.40;;;;;;6184453;23;20329;-71
2022/02/10 21:38:45;;;;;;;1.67;0.70;;;5.40;88.40;;;;;;6183980;23;20072;-71
2022/02/10 21:54:41;;;;;;;0.68;0.40;;;5.30;88.60;;;;;;6179899;23;20374;-72
2022/02/10 21:57:25;;;;;;;0.50;0.43;;;5.20;88.60;;;;;;6184800;23;20025;-72
2022/02/10 22:21:14;;;;;;;1.70;0.75;;;5.20;88.60;;;;;;6183878;23;20035;-72
2022/02/10 22:23:45;;;;;;;0.95;0.60;;;5.20;88.70;;;;;;6182178;23;20016;-72
2022/02/10 22:26:18;;;;;;;1.10;0.88;;;5.10;88.70;;;;;;6183835;23;20039;-72
2022/02/10 22:28:52;;;;;;;2.60;0.60;;;5.10;88.80;;;;;;6184199;23;20032;-72
2022/02/10 22:31:27;;;;;;;1.63;0.75;;;5.10;88.90;;;;;;6182263;23;19997;-72
2022/02/10 22:34:06;;;;;;;1.13;0.63;;;5.10;88.90;;;;;;6184538;23;20031;-72
2022/02/10 22:36:34;;;;;;;1.38;0.47;;;5.00;89.00;;;;;;6183961;23;20002;-72
2022/02/10 22:39:02;;;;;;;0.60;0.50;;;5.00;89.10;;;;;;6184451;23;20025;-72
2022/02/10 22:41:29;;;;;;;0.60;0.47;;;4.90;89.20;;;;;;6183591;23;20054;-72
2022/02/10 22:43:57;;;;;;;1.08;0.60;;;4.90;89.30;;;;;;6182189;23;20020;-72
2022/02/10 22:46:23;;;;;;;1.35;0.60;;;4.90;89.40;;;;;;6182352;23;20153;-72
2022/02/10 22:48:50;;;;;;;1.15;0.60;;;4.80;89.40;;;;;;6183920;23;20002;-72
2022/02/10 22:51:20;;;;;;;0.50;0.50;;;4.80;89.50;;;;;;6183582;23;20003;-72
2022/02/10 22:53:46;;;;;;;0.90;0.50;;;4.70;89.50;;;;;;6183855;23;20089;-72
2022/02/10 22:56:15;;;;;;;0.52;0.38;;;4.80;89.70;;;;;;6182185;23;20013;-72
2022/02/10 22:58:41;;;;;;;0.47;0.40;;;4.70;89.80;;;;;;6183725;23;20750;-72
2022/02/10 23:01:09;;;;;;;0.57;0.40;;;4.70;89.80;;;;;;6182588;23;20006;-72
2022/02/10 23:03:36;;;;;;;2.95;0.70;;;4.60;89.80;;;;;;6183827;23;20005;-72
2022/02/10 23:06:04;;;;;;;1.45;0.63;;;4.60;89.90;;;;;;6183824;23;20053;-72
2022/02/10 23:08:30;;;;;;;0.50;0.38;;;4.60;89.90;;;;;;6181977;23;20029;-72
2022/02/10 23:10:56;;;;;;;0.52;0.47;;;4.60;89.90;;;;;;6183666;23;20024;-72
2022/02/10 23:13:27;;;;;;;1.40;0.57;;;4.60;90.00;;;;;;6183862;23;20009;-72
2022/02/10 23:15:54;;;;;;;1.17;0.40;;;4.50;90.00;;;;;;6184364;23;20033;-72
2022/02/10 23:18:23;;;;;;;0.88;0.55;;;4.60;90.00;;;;;;6184286;23;20097;-72
2022/02/10 23:20:50;;;;;;;1.25;0.52;;;4.50;90.00;;;;;;6181934;23;20101;-72
2022/02/10 23:23:19;;;;;;;0.80;0.50;;;4.40;90.00;;;;;;6181920;23;20013;-72
2022/02/10 23:25:48;;;;;;;1.45;0.40;;;4.50;90.10;;;;;;6183529;23;20441;-72
2022/02/10 23:28:17;;;;;;;1.40;0.50;;;4.40;90.00;;;;;;6184220;23;20009;-72
2022/02/10 23:30:46;;;;;;;2.33;0.68;;;4.40;90.10;;;;;;6182133;23;20007;-72
2022/02/10 23:33:20;;;;;;;0.55;0.32;;;4.40;90.10;;;;;;6183643;23;20329;-72
2022/02/10 23:36:36;;;;;;;1.73;0.40;;;4.30;90.00;;;;;;6181575;23;20001;-72
2022/02/10 23:38:38;;;;;;;0.68;0.40;;;4.40;90.10;;;;;;6182164;23;20009;-72
2022/02/10 23:43:48;;;;;;;0.55;0.40;;;4.20;90.10;;;;;;6183414;23;19915;-72
2022/02/10 23:46:15;;;;;;;0.55;0.40;;;4.20;90.10;;;;;;6182385;23;20012;-73
2022/02/10 23:48:41;;;;;;;1.48;0.50;;;4.10;90.10;;;;;;6183531;23;20071;-72
2022/02/10 23:51:07;;;;;;;0.95;0.40;;;4.10;90.10;;;;;;6183595;23;20373;-72
2022/02/10 23:53:34;;;;;;;1.00;0.52;;;4.10;90.20;;;;;;6183560;23;20008;-72
2022/02/10 23:56:03;;;;;;;0.73;0.40;;;4.10;90.20;;;;;;6180399;23;20373;-73
2022/02/10 23:58:50;;;;;;;1.73;0.40;;;4.10;90.20;;;;;;6184246;23;20425;-73
